Time;durP1;ratioP1;P1;durP2;ratioP2;P2;SDS_P1;SDS_P2;PMS_P1;PMS_P2;Temp;Humidity;BMP_temperature;BMP_pressure;BME280_temperature;BME280_humidity;BME280_pressure;Samples;Min_cycle;Max_cycle;Signal;HPM_P1;HPM_P2
2021/10/02 00:02:06;;;;;;;4.80;3.20;;;;;;;8.31;89.18;97243.64;115442;1198;72664;-82
2021/10/02 00:35:38;;;;;;;4.60;3.10;;;;;;;8.18;89.23;97212.28;115560;1194;27549;-83
2021/10/02 00:41:20;;;;;;;4.60;3.20;;;;;;;8.18;89.30;97203.83;115170;1198;29283;-82
2021/10/02 00:46:39;;;;;;;4.70;3.40;;;;;;;8.14;89.30;97200.02;115533;1198;25370;-82
2021/10/02 00:49:11;;;;;;;5.20;3.50;;;;;;;8.13;89.29;97198.73;115493;1198;32906;-82
2021/10/02 00:51:42;;;;;;;6.00;3.60;;;;;;;8.10;89.30;97199.34;115476;1199;37540;-82
2021/10/02 00:54:13;;;;;;;4.60;3.30;;;;;;;8.08;89.23;97194.73;115474;1198;49306;-82
2021/10/02 00:56:44;;;;;;;5.80;3.30;;;;;;;8.07;89.20;97194.20;115489;1198;46287;-83
2021/10/02 00:59:15;;;;;;;4.30;3.10;;;;;;;8.06;89.35;97190.48;115400;1199;30064;-82
2021/10/02 01:01:52;;;;;;;6.60;2.90;;;;;;;8.05;89.15;97192.95;115501;1198;75791;-82
2021/10/02 01:04:32;;;;;;;5.20;3.30;;;;;;;8.03;89.29;97190.24;115493;1193;31790;-82
2021/10/02 01:07:12;;;;;;;3.30;2.60;;;;;;;8.02;89.28;97192.91;115585;1199;25724;-82
2021/10/02 01:10:10;;;;;;;3.90;2.80;;;;;;;8.02;89.37;97190.11;115515;1198;28255;-82
2021/10/02 01:12:50;;;;;;;3.80;2.60;;;;;;;8.02;89.37;97185.47;115506;1177;46384;-83
2021/10/02 01:15:32;;;;;;;3.10;2.30;;;;;;;8.04;89.52;97189.41;115456;1198;27729;-82
2021/10/02 01:18:12;;;;;;;3.60;2.50;;;;;;;8.06;89.60;97187.64;115590;1191;55151;-82
2021/10/02 01:20:56;;;;;;;4.40;2.50;;;;;;;8.10;89.54;97182.65;115506;1198;29380;-83
2021/10/02 01:23:49;;;;;;;3.70;2.50;;;;;;;8.12;89.67;97187.95;115492;1198;30311;-82
2021/10/02 01:26:58;;;;;;;3.90;2.50;;;;;;;8.12;89.47;97181.35;115530;1198;27877;-83
2021/10/02 01:29:33;;;;;;;3.40;2.20;;;;;;;8.16;89.51;97178.23;115596;1198;25902;-83
2021/10/02 01:32:11;;;;;;;3.20;2.30;;;;;;;8.20;89.55;97178.33;115531;1198;26382;-83
2021/10/02 01:34:53;;;;;;;3.40;2.40;;;;;;;8.23;89.53;97176.40;115482;1199;28164;-82
2021/10/02 01:37:37;;;;;;;5.20;2.90;;;;;;;8.22;89.37;97174.77;115487;1191;39984;-83
2021/10/02 01:48:41;;;;;;;4.80;2.50;;;;;;;8.16;88.94;97175.23;115514;1198;46726;-82
2021/10/02 01:51:13;;;;;;;4.30;2.80;;;;;;;8.14;88.88;97178.66;115514;1198;44438;-82
2021/10/02 01:53:46;;;;;;;4.30;2.80;;;;;;;8.12;88.86;97178.80;115643;1192;51570;-84
2021/10/02 01:56:20;;;;;;;5.00;3.00;;;;;;;8.09;88.85;97175.45;115448;1198;52428;-82
2021/10/02 01:59:01;;;;;;;4.10;2.90;;;;;;;8.06;88.87;97174.02;115523;1198;27383;-82
2021/10/02 02:01:33;;;;;;;4.20;2.70;;;;;;;8.03;88.78;97173.92;115590;1198;31535;-81
2021/10/02 02:04:04;;;;;;;3.60;2.90;;;;;;;8.03;88.79;97168.39;115673;1198;55287;-82
2021/10/02 02:06:36;;;;;;;5.20;3.10;;;;;;;8.01;88.93;97169.77;115573;1198;25378;-83
2021/10/02 02:09:09;;;;;;;4.10;2.40;;;;;;;7.97;88.88;97169.73;115602;1198;28248;-81
2021/10/02 02:11:40;;;;;;;4.20;2.90;;;;;;;7.94;88.95;97171.66;115494;1198;30439;-81
2021/10/02 02:14:15;;;;;;;3.60;2.40;;;;;;;7.92;88.94;97172.44;115494;1198;27782;-82
2021/10/02 02:16:47;;;;;;;3.80;2.80;;;;;;;7.93;89.10;97167.21;115501;1191;53650;-83
2021/10/02 02:19:21;;;;;;;3.70;2.80;;;;;;;7.92;89.20;97168.21;115567;1198;53055;-82
2021/10/02 02:21:52;;;;;;;3.50;2.50;;;;;;;7.91;89.17;97164.65;115565;1198;28275;-82
2021/10/02 02:24:22;;;;;;;5.10;2.70;;;;;;;7.89;89.19;97157.14;115239;1199;47531;-82
2021/10/02 02:26:54;;;;;;;4.40;2.60;;;;;;;7.88;89.06;97156.23;115492;1198;26989;-82
2021/10/02 02:29:26;;;;;;;3.90;2.70;;;;;;;7.86;89.03;97157.35;115500;1198;27755;-81
2021/10/02 02:31:57;;;;;;;4.50;2.80;;;;;;;7.84;89.04;97161.23;115474;1193;27829;-82
2021/10/02 02:34:28;;;;;;;;;;;;;;;7.82;89.08;97159.37;115456;1199;43965;-82
2021/10/02 02:37:00;;;;;;;3.70;2.60;;;;;;;7.79;89.11;97155.38;115511;1198;29273;-82
2021/10/02 02:39:31;;;;;;;2.90;2.70;;;;;;;7.78;89.04;97160.02;115498;1193;65533;-82
2021/10/02 02:42:02;;;;;;;3.90;2.70;;;;;;;7.77;89.15;97156.52;115571;1198;28905;-81
2021/10/02 02:44:33;;;;;;;4.50;2.80;;;;;;;7.77;89.02;97154.89;115517;1198;53848;-82
2021/10/02 02:47:09;;;;;;;4.20;2.80;;;;;;;7.75;88.89;97151.86;115526;1198;53142;-83
2021/10/02 02:49:48;;;;;;;4.20;2.70;;;;;;;7.73;88.78;97155.39;115518;1198;55990;-82
2021/10/02 02:52:22;;;;;;;3.60;2.60;;;;;;;7.71;88.68;97154.59;115517;1198;31713;-83
2021/10/02 02:55:08;;;;;;;3.50;2.70;;;;;;;7.65;88.68;97150.37;115551;1198;29106;-83
2021/10/02 02:57:43;;;;;;;4.70;2.80;;;;;;;7.64;88.69;97150.58;115585;1198;33333;-83
2021/10/02 03:00:16;;;;;;;4.20;2.70;;;;;;;7.60;88.68;97155.11;115541;1198;53801;-82
2021/10/02 03:02:52;;;;;;;3.80;2.80;;;;;;;7.56;88.73;97158.01;115500;1193;43695;-82
2021/10/02 03:05:25;;;;;;;4.80;2.90;;;;;;;7.52;88.90;97153.30;115517;1198;51393;-82
2021/10/02 03:08:01;;;;;;;5.30;2.90;;;;;;;7.52;88.92;97151.62;115497;1197;28505;-82
2021/10/02 03:10:34;;;;;;;6.00;3.10;;;;;;;7.52;88.89;97150.99;115617;1197;30690;-82
2021/10/02 03:13:08;;;;;;;3.60;2.50;;;;;;;7.51;88.71;97150.98;115582;1198;55036;-82
2021/10/02 03:15:42;;;;;;;4.10;2.40;;;;;;;7.51;88.73;97150.02;115425;1198;69417;-81
2021/10/02 03:18:15;;;;;;;3.50;2.40;;;;;;;7.48;88.59;97146.05;115410;1198;58132;-82
2021/10/02 03:20:49;;;;;;;3.80;2.70;;;;;;;7.45;88.48;97148.31;115456;1198;104855;-81
2021/10/02 03:23:21;;;;;;;3.70;2.40;;;;;;;7.42;88.56;97141.67;115503;1197;56336;-83
2021/10/02 03:25:52;;;;;;;2.60;1.90;;;;;;;7.40;88.58;97142.70;115480;1198;30668;-83
2021/10/02 03:28:24;;;;;;;3.30;2.00;;;;;;;7.44;88.95;97140.96;115661;1197;23897;-82
2021/10/02 03:30:56;;;;;;;3.20;2.20;;;;;;;7.48;88.88;97144.45;115444;1191;29530;-82
2021/10/02 03:33:28;;;;;;;3.00;2.20;;;;;;;7.49;88.94;97146.05;115487;1198;53952;-82
2021/10/02 03:35:59;;;;;;;4.60;2.70;;;;;;;7.46;88.72;97144.64;115474;1194;51043;-81
2021/10/02 03:38:31;;;;;;;3.90;2.90;;;;;;;7.42;88.48;97138.66;115519;1198;30012;-82
2021/10/02 03:41:04;;;;;;;4.30;2.40;;;;;;;7.38;88.45;97141.59;115623;1198;89430;-82
2021/10/02 03:43:36;;;;;;;4.20;2.80;;;;;;;7.34;88.27;97140.12;115463;1199;56951;-82
2021/10/02 03:46:07;;;;;;;3.10;2.30;;;;;;;7.33;88.36;97134.63;115474;1199;46042;-81
2021/10/02 03:48:38;;;;;;;3.20;2.50;;;;;;;7.34;88.50;97134.41;115510;1198;28433;-81
2021/10/02 03:51:09;;;;;;;4.20;2.80;;;;;;;7.30;88.31;97133.55;115457;1198;47881;-81
2021/10/02 03:53:38;;;;;;;;;;;;;;;7.25;88.34;97129.97;115626;1198;26869;-81
2021/10/02 03:56:09;;;;;;;2.90;2.10;;;;;;;7.22;88.53;97127.30;115484;1198;57561;-82
2021/10/02 03:58:40;;;;;;;3.50;2.20;;;;;;;7.23;88.88;97122.88;115484;1198;51919;-82
2021/10/02 04:01:11;;;;;;;3.30;2.30;;;;;;;7.24;89.01;97122.68;115472;1198;52183;-82
2021/10/02 04:03:42;;;;;;;4.30;2.60;;;;;;;7.25;89.11;97119.73;115630;1198;53773;-82
2021/10/02 04:06:13;;;;;;;2.90;2.20;;;;;;;7.24;89.17;97123.30;115629;1198;31358;-82
2021/10/02 04:08:44;;;;;;;3.40;2.70;;;;;;;7.20;89.13;97121.88;115604;1198;29078;-83
2021/10/02 04:11:15;;;;;;;2.80;2.40;;;;;;;7.15;89.11;97123.13;115644;1198;29255;-83
2021/10/02 04:13:44;;;;;;;;;;;;;;;7.09;89.33;97123.96;115499;1197;35386;-83
2021/10/02 04:16:14;;;;;;;4.50;2.70;;;;;;;7.04;89.26;97122.40;115480;1198;27978;-81
2021/10/02 04:18:43;;;;;;;;;;;;;;;7.01;89.41;97121.77;115493;1198;29387;-83
2021/10/02 04:21:14;;;;;;;4.20;2.50;;;;;;;7.02;89.54;97122.05;115490;1191;27904;-82
2021/10/02 04:23:45;;;;;;;3.10;2.50;;;;;;;7.01;89.60;97120.23;115496;1198;29495;-83
2021/10/02 04:26:16;;;;;;;6.30;3.10;;;;;;;6.99;89.65;97123.06;115564;1191;31438;-83
2021/10/02 04:28:47;;;;;;;5.10;2.40;;;;;;;6.97;89.76;97120.68;115427;1192;30895;-83
2021/10/02 04:31:17;;;;;;;4.20;2.10;;;;;;;6.98;89.79;97123.11;115383;1199;55044;-83
2021/10/02 04:33:48;;;;;;;3.70;2.50;;;;;;;6.99;90.00;97123.33;115374;1199;28076;-83
2021/10/02 04:36:19;;;;;;;;;;;;;;;6.98;90.21;97124.17;115399;1198;34149;-84
2021/10/02 04:38:50;;;;;;;3.20;2.30;;;;;;;6.97;90.13;97125.21;115409;1198;27657;-83
2021/10/02 04:41:19;;;;;;;;;;;;;;;6.99;90.11;97124.33;115430;1198;29961;-84
2021/10/02 04:43:50;;;;;;;3.00;2.20;;;;;;;7.03;90.24;97126.48;115436;1198;30356;-84
2021/10/02 04:46:22;;;;;;;3.50;2.20;;;;;;;7.06;90.13;97128.09;115384;1193;45234;-83
2021/10/02 04:48:53;;;;;;;2.90;2.00;;;;;;;7.10;90.03;97129.02;115397;1199;29124;-83
2021/10/02 04:51:24;;;;;;;3.80;2.30;;;;;;;7.17;89.98;97134.76;115474;1191;27160;-82
2021/10/02 04:53:55;;;;;;;3.90;2.60;;;;;;;7.40;90.23;97128.79;115363;1198;30615;-82
2021/10/02 04:56:27;;;;;;;2.50;2.20;;;;;;;7.78;90.04;97128.08;115404;1198;32760;-83
2021/10/02 04:58:57;;;;;;;3.00;2.30;;;;;;;8.18;89.66;97125.33;115463;1193;29873;-82
2021/10/02 05:01:28;;;;;;;2.90;1.90;;;;;;;8.59;89.18;97124.65;115649;1197;27976;-85
2021/10/02 05:04:01;;;;;;;3.10;2.10;;;;;;;8.95;88.37;97128.24;115463;1198;41679;-84
2021/10/02 05:06:31;;;;;;;2.90;1.80;;;;;;;9.27;87.44;97124.94;115519;1198;28750;-83
2021/10/02 05:09:02;;;;;;;2.60;2.00;;;;;;;9.57;86.76;97127.15;115495;1197;34852;-83
2021/10/02 05:11:33;;;;;;;2.30;2.00;;;;;;;9.87;86.18;97123.92;115435;1198;32688;-84
2021/10/02 05:14:04;;;;;;;2.80;1.50;;;;;;;10.21;85.67;97126.93;115544;1193;32188;-84
2021/10/02 05:16:35;;;;;;;2.20;1.90;;;;;;;10.53;84.95;97126.91;115520;1198;29870;-84
2021/10/02 05:19:05;;;;;;;2.50;2.00;;;;;;;10.87;84.01;97127.23;115542;1191;28592;-84
2021/10/02 05:21:36;;;;;;;3.10;2.20;;;;;;;11.11;82.92;97125.45;115560;1198;29784;-83
2021/10/02 05:24:08;;;;;;;3.70;2.20;;;;;;;11.43;82.56;97121.06;115443;1198;58106;-79
2021/10/02 05:26:39;;;;;;;4.10;2.40;;;;;;;11.77;82.01;97115.05;115355;1193;32065;-83
2021/10/02 05:29:09;;;;;;;3.90;2.30;;;;;;;12.15;81.45;97114.42;115398;1199;27215;-83
2021/10/02 05:31:41;;;;;;;2.90;2.30;;;;;;;12.53;80.54;97116.94;115434;1199;26795;-83
2021/10/02 05:34:11;;;;;;;7.00;2.60;;;;;;;12.91;79.54;97114.32;115361;1198;31621;-84
2021/10/02 05:36:42;;;;;;;4.40;2.70;;;;;;;13.23;78.65;97116.91;115387;1200;31921;-83
2021/10/02 05:39:14;;;;;;;4.10;2.80;;;;;;;13.51;77.57;97113.78;115420;1198;30824;-83
2021/10/02 05:41:45;;;;;;;4.70;2.70;;;;;;;13.97;77.31;97117.38;115468;1198;31697;-84
2021/10/02 05:44:16;;;;;;;3.30;2.70;;;;;;;14.23;76.04;97118.83;115327;1199;30627;-83
2021/10/02 05:46:46;;;;;;;4.40;3.30;;;;;;;14.53;75.60;97119.41;115413;1193;53512;-83
2021/10/02 05:49:18;;;;;;;4.60;3.60;;;;;;;14.92;74.71;97119.54;114125;1197;1743217;-81
2021/10/02 05:51:48;;;;;;;4.80;3.50;;;;;;;15.29;74.23;97117.06;115483;1197;31633;-83
2021/10/02 05:54:19;;;;;;;6.40;3.00;;;;;;;15.81;73.30;97120.39;115433;1198;30649;-83
2021/10/02 05:56:50;;;;;;;5.20;3.50;;;;;;;16.20;72.42;97114.37;115475;1198;36288;-84
2021/10/02 05:59:21;;;;;;;5.90;3.90;;;;;;;16.83;72.08;97115.98;115444;1198;27468;-84
2021/10/02 06:01:52;;;;;;;5.30;3.30;;;;;;;17.33;69.61;97112.81;115541;1184;30468;-83
2021/10/02 06:04:23;;;;;;;4.80;3.20;;;;;;;17.70;68.30;97115.73;115462;1198;40641;-83
2021/10/02 06:06:54;;;;;;;6.50;3.40;;;;;;;18.02;67.58;97118.42;115460;1198;34633;-84
2021/10/02 06:09:25;;;;;;;4.70;3.30;;;;;;;18.56;67.37;97116.35;115379;1193;28318;-84
2021/10/02 06:11:56;;;;;;;6.90;3.30;;;;;;;19.03;65.62;97119.69;115359;1198;26980;-84
2021/10/02 06:14:27;;;;;;;4.40;3.50;;;;;;;19.44;64.92;97118.33;115431;1198;48217;-83
2021/10/02 06:16:58;;;;;;;5.30;3.40;;;;;;;19.94;64.00;97117.55;115402;1198;27968;-85
2021/10/02 06:19:29;;;;;;;6.10;4.00;;;;;;;20.43;63.04;97117.55;115469;1198;33238;-86
2021/10/02 06:22:00;;;;;;;7.30;4.00;;;;;;;20.75;61.46;97116.80;115327;1198;57800;-84
2021/10/02 06:24:34;;;;;;;6.00;3.70;;;;;;;20.97;60.48;97118.63;115353;1198;34974;-83
2021/10/02 06:27:06;;;;;;;7.70;3.90;;;;;;;21.56;60.40;97117.10;115429;1199;27266;-84
2021/10/02 06:29:38;;;;;;;6.20;4.70;;;;;;;22.14;57.88;97121.06;115469;1198;31581;-86
2021/10/02 06:32:09;;;;;;;4.70;3.80;;;;;;;22.17;57.04;97124.93;115547;1198;26618;-86
2021/10/02 06:34:40;;;;;;;5.70;4.20;;;;;;;22.47;56.18;97119.40;115441;1193;61821;-85
2021/10/02 06:37:11;;;;;;;6.00;3.90;;;;;;;22.71;55.69;97118.85;115628;1198;31659;-85
2021/10/02 06:39:42;;;;;;;6.20;3.90;;;;;;;23.08;55.00;97121.02;115599;1198;30278;-84
2021/10/02 06:42:13;;;;;;;5.70;4.10;;;;;;;23.39;54.18;97123.20;115567;1197;33657;-85
2021/10/02 06:44:44;;;;;;;4.50;3.40;;;;;;;23.36;53.39;97122.83;115617;1198;33682;-85
2021/10/02 06:47:15;;;;;;;4.50;3.60;;;;;;;23.69;53.53;97120.16;113497;1198;2613653;-84
2021/10/02 06:49:47;;;;;;;7.30;4.40;;;;;;;23.85;52.34;97121.93;115496;1198;27847;-84
2021/10/02 06:52:18;;;;;;;6.80;5.20;;;;;;;23.81;50.10;97121.77;115496;1193;30499;-83
2021/10/02 06:54:49;;;;;;;6.30;4.50;;;;;;;23.11;47.81;97116.63;115491;1198;29380;-83
2021/10/02 06:57:20;;;;;;;6.80;5.20;;;;;;;22.87;48.29;97120.55;115463;1199;30860;-85
2021/10/02 06:59:51;;;;;;;5.30;4.30;;;;;;;23.36;50.25;97124.05;115448;1198;34225;-85
2021/10/02 07:02:23;;;;;;;8.70;4.30;;;;;;;24.03;49.47;97123.27;115541;1193;27195;-84
2021/10/02 07:04:54;;;;;;;6.80;4.30;;;;;;;24.56;49.37;97122.27;115462;1198;34846;-84
2021/10/02 07:07:25;;;;;;;6.10;4.40;;;;;;;25.07;48.04;97119.01;115504;1198;31556;-85
2021/10/02 07:09:56;;;;;;;7.10;4.40;;;;;;;25.10;46.67;97123.41;115452;1198;34034;-84
2021/10/02 07:12:26;;;;;;;7.50;4.40;;;;;;;25.23;46.91;97119.23;115537;1198;35449;-83
2021/10/02 07:14:57;;;;;;;5.30;4.20;;;;;;;25.60;47.15;97122.95;115440;1198;27092;-84
2021/10/02 07:17:28;;;;;;;6.20;4.30;;;;;;;25.39;44.39;97122.36;115416;1198;32931;-84
2021/10/02 07:19:59;;;;;;;6.90;5.10;;;;;;;24.91;43.42;97123.90;115464;1198;44023;-85
2021/10/02 07:22:34;;;;;;;7.70;4.80;;;;;;;24.56;44.39;97128.85;115525;1198;27104;-85
2021/10/02 07:25:07;;;;;;;7.20;4.90;;;;;;;24.79;45.28;97130.85;115660;1198;31769;-85
2021/10/02 07:27:40;;;;;;;7.60;4.90;;;;;;;24.73;43.78;97136.64;115495;1198;28479;-86
2021/10/02 07:30:13;;;;;;;9.00;5.60;;;;;;;24.28;41.68;97133.50;115537;1197;28065;-85
2021/10/02 07:32:45;;;;;;;7.50;5.50;;;;;;;23.21;42.72;97134.55;115526;1198;79971;-85
2021/10/02 07:35:16;;;;;;;7.10;5.40;;;;;;;22.91;43.39;97132.61;115556;1198;29596;-86
2021/10/02 07:37:47;;;;;;;8.60;5.40;;;;;;;22.65;44.98;97130.25;115618;1198;30497;-85
2021/10/02 07:40:18;;;;;;;7.20;5.70;;;;;;;22.70;44.73;97138.26;115489;1192;30813;-86
2021/10/02 07:42:55;;;;;;;10.90;6.20;;;;;;;21.91;43.58;97131.84;115553;1197;53740;-84
2021/10/02 07:45:27;;;;;;;9.00;6.20;;;;;;;21.45;45.96;97136.47;115645;1197;54320;-85
2021/10/02 07:47:59;;;;;;;9.60;6.70;;;;;;;21.33;44.77;97131.86;115537;1197;26255;-85
2021/10/02 07:50:31;;;;;;;10.50;6.50;;;;;;;20.60;45.76;97139.41;115547;1197;27363;-85
2021/10/02 07:53:02;;;;;;;9.70;5.60;;;;;;;20.52;47.57;97135.59;115462;1198;28821;-85
2021/10/02 07:55:34;;;;;;;10.00;7.10;;;;;;;20.44;45.93;97141.37;115683;1198;27306;-86
2021/10/02 07:58:05;;;;;;;11.00;8.10;;;;;;;19.97;46.46;97134.35;115558;1198;26839;-85
2021/10/02 08:00:36;;;;;;;10.20;7.00;;;;;;;19.58;48.14;97139.52;115604;1198;27298;-85
2021/10/02 08:03:08;;;;;;;10.40;7.10;;;;;;;19.73;48.42;97138.25;115480;1198;27315;-84
2021/10/02 08:05:39;;;;;;;10.80;7.10;;;;;;;19.76;48.65;97134.47;115541;1198;28178;-84
2021/10/02 08:08:14;;;;;;;10.00;6.90;;;;;;;19.65;48.66;97137.79;115529;1193;28193;-85
2021/10/02 08:10:46;;;;;;;11.00;7.30;;;;;;;19.58;48.95;97135.30;115515;1198;30292;-86
2021/10/02 08:13:18;;;;;;;11.40;7.30;;;;;;;19.59;49.26;97136.55;115441;1198;26646;-84
2021/10/02 08:15:57;;;;;;;11.00;8.10;;;;;;;19.35;48.60;97133.79;115437;1198;38555;-85
2021/10/02 08:18:35;;;;;;;11.00;7.70;;;;;;;18.98;48.97;97133.92;115464;1198;30062;-84
2021/10/02 08:21:07;;;;;;;11.80;8.00;;;;;;;18.73;49.45;97139.40;115516;1193;27698;-86
2021/10/02 08:23:42;;;;;;;9.20;7.60;;;;;;;18.60;50.29;97136.54;115447;1198;33547;-85
2021/10/02 08:26:15;;;;;;;11.90;8.90;;;;;;;18.58;50.46;97143.02;115414;1198;46170;-85
2021/10/02 08:28:48;;;;;;;13.70;7.80;;;;;;;18.52;50.81;97142.43;115563;1198;30824;-85
2021/10/02 08:31:22;;;;;;;11.00;8.10;;;;;;;18.52;50.76;97140.70;115613;1198;27136;-85
2021/10/02 08:33:53;;;;;;;10.60;8.50;;;;;;;18.29;50.66;97140.55;115591;1197;26306;-86
2021/10/02 08:36:24;;;;;;;11.60;8.60;;;;;;;18.17;51.45;97144.67;115527;1199;29235;-86
2021/10/02 08:38:56;;;;;;;11.40;8.40;;;;;;;18.16;52.04;97138.13;115550;1198;27041;-86
2021/10/02 08:41:28;;;;;;;13.30;8.20;;;;;;;18.18;52.12;97136.46;115640;1193;30071;-84
2021/10/02 08:44:01;;;;;;;12.30;8.60;;;;;;;18.04;51.89;97141.38;115584;1197;26543;-85
2021/10/02 08:46:32;;;;;;;13.30;8.30;;;;;;;17.96;52.11;97134.34;115636;1198;42381;-85
2021/10/02 08:49:33;;;;;;;14.90;8.60;;;;;;;17.80;52.03;97127.80;115348;1198;29413;-86
2021/10/02 08:52:06;;;;;;;14.00;8.70;;;;;;;17.63;52.67;97130.12;115537;1198;29573;-86
2021/10/02 08:54:39;;;;;;;12.30;8.40;;;;;;;17.63;53.42;97128.54;115513;1197;28738;-85
2021/10/02 08:57:12;;;;;;;13.80;9.20;;;;;;;17.65;53.52;97120.85;115501;1198;26330;-86
2021/10/02 08:59:43;;;;;;;13.30;8.60;;;;;;;17.53;53.63;97126.06;115450;1198;32758;-87
2021/10/02 09:02:15;;;;;;;12.20;9.00;;;;;;;17.38;53.55;97125.83;115426;1198;26889;-86
2021/10/02 09:04:47;;;;;;;13.80;9.30;;;;;;;17.30;54.43;97124.95;115423;1199;30148;-87
2021/10/02 09:07:20;;;;;;;13.20;9.00;;;;;;;17.31;54.75;97121.23;115473;1193;30983;-87
2021/10/02 09:09:54;;;;;;;11.70;8.20;;;;;;;17.32;54.70;97122.02;115414;1197;37302;-87
2021/10/02 09:12:26;;;;;;;12.50;8.20;;;;;;;17.29;54.39;97113.89;115430;1198;29076;-87
2021/10/02 09:14:57;;;;;;;13.70;9.00;;;;;;;17.20;54.95;97118.38;115384;1198;30513;-86
2021/10/02 09:17:28;;;;;;;12.00;8.70;;;;;;;17.19;54.62;97114.58;115467;1197;29753;-85
2021/10/02 09:19:59;;;;;;;11.00;8.10;;;;;;;17.07;54.84;97116.02;115457;1198;29068;-85
2021/10/02 09:22:30;;;;;;;10.90;8.40;;;;;;;17.07;54.98;97115.66;115420;1193;31025;-87
2021/10/02 09:25:03;;;;;;;11.60;8.60;;;;;;;17.11;55.29;97112.39;115466;1197;28241;-88
2021/10/02 09:27:37;;;;;;;11.50;8.60;;;;;;;17.16;55.43;97118.88;115503;1198;27838;-85
2021/10/02 09:30:11;;;;;;;13.10;8.80;;;;;;;17.25;55.41;97111.26;115405;1198;32088;-85
2021/10/02 09:32:45;;;;;;;13.90;8.80;;;;;;;17.29;55.14;97119.30;115411;1198;104094;-85
2021/10/02 09:35:19;;;;;;;12.40;8.90;;;;;;;17.32;55.48;97114.79;115449;1193;64721;-86
2021/10/02 09:37:55;;;;;;;11.20;8.10;;;;;;;17.34;55.34;97119.06;115443;1197;42625;-86
2021/10/02 09:40:28;;;;;;;12.10;8.70;;;;;;;17.30;55.15;97116.98;115481;1198;47475;-85
2021/10/02 09:43:02;;;;;;;10.40;8.10;;;;;;;17.26;55.15;97118.57;115390;1198;47491;-85
2021/10/02 09:45:38;;;;;;;12.20;8.80;;;;;;;17.29;55.17;97110.20;115616;1198;25724;-87
2021/10/02 09:48:11;;;;;;;11.50;8.10;;;;;;;17.32;55.51;97115.43;115549;1194;40583;-86
2021/10/02 09:50:46;;;;;;;10.70;8.90;;;;;;;17.38;54.99;97104.69;115382;1193;123360;-87
2021/10/02 09:53:19;;;;;;;11.80;7.90;;;;;;;17.37;54.76;97101.80;115409;1193;67639;-87
2021/10/02 09:55:52;;;;;;;10.40;8.30;;;;;;;17.39;55.31;97105.52;115370;1193;59203;-87
2021/10/02 09:58:35;;;;;;;13.00;8.90;;;;;;;17.46;55.63;97103.77;115523;1193;28028;-87
2021/10/02 10:01:20;;;;;;;11.70;8.70;;;;;;;17.54;55.52;97106.04;115502;1197;25930;-87
2021/10/02 10:03:52;;;;;;;10.70;8.20;;;;;;;17.57;55.32;97102.52;115371;1197;62528;-86
2021/10/02 10:06:25;;;;;;;11.50;8.20;;;;;;;17.61;54.98;97104.57;115438;1198;28142;-87
2021/10/02 10:09:08;;;;;;;10.70;8.40;;;;;;;17.61;55.27;97098.93;115442;1199;27587;-87
2021/10/02 10:11:48;;;;;;;11.40;8.50;;;;;;;17.65;54.93;97101.75;115468;1198;74298;-87
2021/10/02 10:14:25;;;;;;;11.90;8.60;;;;;;;17.63;54.73;97094.19;115482;1198;45254;-87
2021/10/02 10:16:58;;;;;;;10.20;8.60;;;;;;;17.64;54.79;97098.58;115437;1198;29279;-87
2021/10/02 10:19:32;;;;;;;11.80;8.10;;;;;;;17.65;55.12;97094.34;115552;1193;32022;-85
2021/10/02 10:22:14;;;;;;;12.60;8.70;;;;;;;17.70;54.85;97093.27;115527;1191;55046;-85
2021/10/02 10:24:56;;;;;;;12.10;8.20;;;;;;;17.73;54.87;97093.23;115386;1198;30067;-86
2021/10/02 10:27:40;;;;;;;11.40;7.90;;;;;;;17.77;54.73;97088.58;115435;1197;33091;-85
2021/10/02 10:30:16;;;;;;;11.60;7.30;;;;;;;17.85;54.86;97089.90;115462;1198;27551;-84
2021/10/02 10:33:03;;;;;;;11.20;7.10;;;;;;;17.92;54.48;97090.08;115431;1192;25777;-86
2021/10/02 10:35:37;;;;;;;12.30;8.20;;;;;;;17.97;54.30;97085.88;115551;1197;27637;-85
2021/10/02 10:38:10;;;;;;;11.50;7.80;;;;;;;18.02;54.51;97085.95;115703;1192;30883;-85
2021/10/02 10:40:42;;;;;;;9.60;7.40;;;;;;;18.08;54.05;97091.73;115619;1193;30628;-86
2021/10/02 10:43:14;;;;;;;10.60;7.70;;;;;;;18.10;53.09;97092.36;115481;1198;26477;-86
2021/10/02 10:45:45;;;;;;;11.70;7.80;;;;;;;18.08;52.68;97085.55;115426;1198;39079;-85
2021/10/02 10:48:16;;;;;;;10.50;6.90;;;;;;;18.11;52.19;97080.75;115451;1198;30008;-86
2021/10/02 10:50:47;;;;;;;9.80;6.40;;;;;;;18.10;52.03;97074.73;115443;1197;26891;-86
2021/10/02 10:53:18;;;;;;;11.00;7.90;;;;;;;18.09;51.93;97078.64;115477;1193;29365;-85
2021/10/02 10:55:56;;;;;;;9.60;7.10;;;;;;;18.15;52.82;97085.93;115388;1198;27410;-86
2021/10/02 10:58:29;;;;;;;10.70;7.40;;;;;;;18.19;52.03;97078.46;115459;1198;26668;-86
2021/10/02 11:01:02;;;;;;;9.30;7.20;;;;;;;18.17;51.80;97075.11;115536;1198;25197;-86
2021/10/02 11:03:45;;;;;;;11.30;7.50;;;;;;;18.17;52.43;97071.76;115493;1193;28583;-86
2021/10/02 11:06:18;;;;;;;10.50;7.40;;;;;;;18.27;52.76;97064.63;115388;1198;28597;-86
2021/10/02 11:09:07;;;;;;;9.00;7.20;;;;;;;18.31;52.39;97064.83;115406;1198;26862;-86
2021/10/02 11:12:00;;;;;;;9.80;6.90;;;;;;;18.34;52.60;97065.01;115504;1198;29317;-83
2021/10/02 11:15:02;;;;;;;9.40;7.20;;;;;;;18.36;52.34;97058.77;115450;1198;43192;-86
2021/10/02 11:17:45;;;;;;;12.30;8.20;;;;;;;18.42;51.98;97053.04;115492;1198;28988;-86
2021/10/02 11:20:40;;;;;;;11.40;7.50;;;;;;;18.43;52.08;97051.46;115494;1198;27303;-86
2021/10/02 11:24:03;;;;;;;10.60;7.10;;;;;;;18.44;52.16;97048.63;115380;1198;27387;-86
2021/10/02 11:26:57;;;;;;;11.00;6.70;;;;;;;18.46;51.58;97044.27;115145;1201;27344;-86
2021/10/02 11:29:34;;;;;;;10.50;7.00;;;;;;;18.46;52.37;97044.56;115115;1200;27224;-86
2021/10/02 11:32:33;;;;;;;10.40;7.40;;;;;;;18.46;51.44;97042.98;115234;1200;29718;-86
2021/10/02 11:35:34;;;;;;;8.90;6.90;;;;;;;18.42;51.27;97038.33;115167;1201;26581;-85
2021/10/02 11:38:07;;;;;;;10.00;6.50;;;;;;;18.39;51.87;97038.69;115389;1199;25417;-86
2021/10/02 11:40:52;;;;;;;9.10;6.50;;;;;;;18.46;52.32;97044.66;115640;1197;30454;-86
2021/10/02 11:43:33;;;;;;;10.60;7.20;;;;;;;18.53;52.45;97036.80;115438;1199;32030;-86
2021/10/02 11:46:09;;;;;;;7.70;6.00;;;;;;;18.55;52.15;97048.92;115529;1198;26843;-85
2021/10/02 11:48:46;;;;;;;7.80;6.40;;;;;;;18.43;51.61;97044.74;115465;1198;29856;-86
2021/10/02 11:51:26;;;;;;;10.50;6.40;;;;;;;18.32;52.20;97036.30;115463;1198;32776;-85
2021/10/02 11:53:59;;;;;;;8.80;6.90;;;;;;;18.31;52.82;97041.33;115433;1191;37667;-86
2021/10/02 11:56:33;;;;;;;8.40;6.00;;;;;;;18.36;52.40;97041.91;115431;1198;31462;-85
2021/10/02 11:59:05;;;;;;;9.20;6.50;;;;;;;18.44;52.31;97034.89;115519;1194;26322;-85
2021/10/02 12:01:40;;;;;;;9.00;5.90;;;;;;;18.49;51.52;97033.59;115529;1198;30708;-86
2021/10/02 12:04:15;;;;;;;9.80;6.70;;;;;;;18.50;50.36;97030.55;115424;1199;50318;-86
2021/10/02 12:06:47;;;;;;;9.20;5.70;;;;;;;18.49;51.15;97035.80;115471;1198;28866;-86
2021/10/02 12:09:20;;;;;;;7.40;5.90;;;;;;;18.56;51.81;97032.13;115427;1198;26740;-86
2021/10/02 12:11:53;;;;;;;8.50;6.20;;;;;;;18.67;52.48;97025.61;115451;1198;27603;-86
2021/10/02 12:14:27;;;;;;;10.80;6.20;;;;;;;18.72;51.43;97021.15;115418;1199;29775;-87
2021/10/02 12:17:00;;;;;;;7.00;5.90;;;;;;;18.75;51.89;97020.61;115475;1198;28653;-86
2021/10/02 12:19:32;;;;;;;11.30;6.50;;;;;;;18.79;51.57;97018.83;115449;1198;32238;-86
2021/10/02 12:22:05;;;;;;;10.10;5.70;;;;;;;18.78;51.42;97019.27;115499;1198;30642;-86
2021/10/02 12:24:39;;;;;;;8.10;5.50;;;;;;;18.75;50.58;97016.54;115528;1199;27215;-85
2021/10/02 12:27:15;;;;;;;12.10;6.00;;;;;;;18.73;51.25;97024.35;115442;1197;29677;-86
2021/10/02 12:29:49;;;;;;;7.80;5.80;;;;;;;18.71;50.15;97021.79;115397;1198;32863;-84
2021/10/02 12:32:21;;;;;;;8.30;5.70;;;;;;;18.63;50.07;97021.38;115482;1198;29669;-86
2021/10/02 12:34:54;;;;;;;8.10;5.40;;;;;;;18.62;50.09;97016.89;115398;1198;26913;-86
2021/10/02 12:37:28;;;;;;;9.00;5.40;;;;;;;18.61;49.64;97021.02;115483;1191;27349;-85
2021/10/02 12:40:01;;;;;;;6.60;5.30;;;;;;;18.58;50.19;97024.76;115397;1197;76630;-84
2021/10/02 12:42:37;;;;;;;7.60;5.10;;;;;;;18.61;50.59;97024.30;115433;1198;27457;-86
2021/10/02 12:45:11;;;;;;;8.30;5.20;;;;;;;18.69;50.63;97019.16;115529;1198;26500;-85